sensor_id;sensor_type;location;lat;lon;timestamp;pressure;altitude;pressure_sealevel;temperature;humidity
15670;BME280;18524;45.190;5.732;2023-12-04T00:02:19;99417.78;;;0.62;100.00
15670;BME280;18524;45.190;5.732;2023-12-04T00:07:09;99402.16;;;0.67;100.00
15670;BME280;18524;45.190;5.732;2023-12-04T00:11:59;99401.34;;;0.65;100.00
15670;BME280;18524;45.190;5.732;2023-12-04T00:16:49;99400.41;;;0.68;100.00
15670;BME280;18524;45.190;5.732;2023-12-04T00:21:40;99384.88;;;0.69;100.00
15670;BME280;18524;45.190;5.732;2023-12-04T00:26:30;99375.09;;;0.54;100.00
15670;BME280;18524;45.190;5.732;2023-12-04T00:31:21;99380.38;;;0.51;100.00
15670;BME280;18524;45.190;5.732;2023-12-04T00:36:11;99371.28;;;0.41;100.00
15670;BME280;18524;45.190;5.732;2023-12-04T00:41:01;99361.44;;;0.52;100.00
15670;BME280;18524;45.190;5.732;2023-12-04T00:45:52;99350.22;;;0.53;100.00
15670;BME280;18524;45.190;5.732;2023-12-04T00:50:42;99336.88;;;0.42;100.00
15670;BME280;18524;45.190;5.732;2023-12-04T00:55:33;99341.00;;;0.46;100.00
15670;BME280;18524;45.190;5.732;2023-12-04T01:00:23;99317.50;;;0.53;100.00
15670;BME280;18524;45.190;5.732;2023-12-04T01:05:14;99324.22;;;0.57;100.00
15670;BME280;18524;45.190;5.732;2023-12-04T01:10:04;99334.78;;;0.75;100.00
15670;BME280;18524;45.190;5.732;2023-12-04T01:14:55;99330.00;;;0.87;100.00
15670;BME280;18524;45.190;5.732;2023-12-04T01:19:45;99318.03;;;1.07;100.00
15670;BME280;18524;45.190;5.732;2023-12-04T01:24:35;99305.13;;;1.07;100.00
15670;BME280;18524;45.190;5.732;2023-12-04T01:29:26;99317.03;;;0.89;100.00
15670;BME280;18524;45.190;5.732;2023-12-04T01:34:16;99326.56;;;0.87;100.00
15670;BME280;18524;45.190;5.732;2023-12-04T01:39:07;99318.75;;;0.88;100.00
15670;BME280;18524;45.190;5.732;2023-12-04T01:43:57;99308.44;;;0.88;100.00
15670;BME280;18524;45.190;5.732;2023-12-04T01:48:47;99329.50;;;1.00;100.00
15670;BME280;18524;45.190;5.732;2023-12-04T01:53:40;99322.16;;;1.12;100.00
15670;BME280;18524;45.190;5.732;2023-12-04T01:58:32;99322.19;;;1.11;100.00
15670;BME280;18524;45.190;5.732;2023-12-04T02:03:23;99320.50;;;1.32;100.00
15670;BME280;18524;45.190;5.732;2023-12-04T02:08:14;99312.75;;;1.53;100.00
15670;BME280;18524;45.190;5.732;2023-12-04T02:13:04;99327.34;;;1.54;100.00
15670;BME280;18524;45.190;5.732;2023-12-04T02:17:55;99303.31;;;1.52;100.00
15670;BME280;18524;45.190;5.732;2023-12-04T02:22:45;99292.25;;;1.49;100.00
15670;BME280;18524;45.190;5.732;2023-12-04T02:27:50;99284.78;;;1.41;100.00
15670;BME280;18524;45.190;5.732;2023-12-04T02:32:45;99259.78;;;1.42;100.00
15670;BME280;18524;45.190;5.732;2023-12-04T02:37:35;99265.03;;;1.40;100.00
15670;BME280;18524;45.190;5.732;2023-12-04T02:42:26;99230.34;;;1.46;100.00
15670;BME280;18524;45.190;5.732;2023-12-04T02:47:17;99220.75;;;1.49;100.00
15670;BME280;18524;45.190;5.732;2023-12-04T02:52:07;99222.16;;;1.56;100.00
15670;BME280;18524;45.190;5.732;2023-12-04T02:56:58;99191.50;;;1.47;100.00
15670;BME280;18524;45.190;5.732;2023-12-04T03:01:48;99182.34;;;1.40;100.00
15670;BME280;18524;45.190;5.732;2023-12-04T03:06:38;99199.59;;;1.40;100.00
15670;BME280;18524;45.190;5.732;2023-12-04T03:11:29;99173.19;;;1.53;100.00
15670;BME280;18524;45.190;5.732;2023-12-04T03:16:19;99159.44;;;1.53;100.00
15670;BME280;18524;45.190;5.732;2023-12-04T03:21:10;99169.91;;;1.50;100.00
15670;BME280;18524;45.190;5.732;2023-12-04T03:26:00;99167.97;;;1.35;100.00
15670;BME280;18524;45.190;5.732;2023-12-04T03:30:50;99163.63;;;1.35;100.00
15670;BME280;18524;45.190;5.732;2023-12-04T03:35:41;99162.72;;;1.36;100.00
15670;BME280;18524;45.190;5.732;2023-12-04T03:40:31;99145.81;;;1.49;100.00
15670;BME280;18524;45.190;5.732;2023-12-04T03:45:22;99150.13;;;1.49;100.00
15670;BME280;18524;45.190;5.732;2023-12-04T03:50:12;99141.06;;;1.59;100.00
15670;BME280;18524;45.190;5.732;2023-12-04T03:55:03;99130.53;;;1.82;100.00
15670;BME280;18524;45.190;5.732;2023-12-04T03:59:53;99115.75;;;1.86;100.00
15670;BME280;18524;45.190;5.732;2023-12-04T04:04:44;99126.25;;;1.81;100.00
15670;BME280;18524;45.190;5.732;2023-12-04T04:09:34;99134.72;;;1.85;100.00
15670;BME280;18524;45.190;5.732;2023-12-04T04:14:24;99114.69;;;1.90;100.00
15670;BME280;18524;45.190;5.732;2023-12-04T04:19:15;99123.69;;;2.00;100.00
15670;BME280;18524;45.190;5.732;2023-12-04T04:24:05;99114.41;;;1.96;100.00
15670;BME280;18524;45.190;5.732;2023-12-04T04:28:55;99116.84;;;1.99;100.00
15670;BME280;18524;45.190;5.732;2023-12-04T04:33:46;99093.56;;;1.99;100.00
15670;BME280;18524;45.190;5.732;2023-12-04T04:38:36;99080.22;;;1.90;100.00
15670;BME280;18524;45.190;5.732;2023-12-04T04:43:27;99078.13;;;1.79;100.00
15670;BME280;18524;45.190;5.732;2023-12-04T04:48:17;99059.69;;;1.86;100.00
15670;BME280;18524;45.190;5.732;2023-12-04T04:53:08;99064.03;;;1.86;100.00
15670;BME280;18524;45.190;5.732;2023-12-04T04:57:58;99056.88;;;1.91;100.00
15670;BME280;18524;45.190;5.732;2023-12-04T05:02:48;99059.56;;;1.90;100.00
15670;BME280;18524;45.190;5.732;2023-12-04T05:07:39;99043.66;;;1.97;100.00
15670;BME280;18524;45.190;5.732;2023-12-04T05:12:29;99015.38;;;2.11;100.00
15670;BME280;18524;45.190;5.732;2023-12-04T05:17:20;99011.22;;;2.09;100.00
15670;BME280;18524;45.190;5.732;2023-12-04T05:22:10;98993.78;;;2.12;100.00
15670;BME280;18524;45.190;5.732;2023-12-04T05:27:00;99014.00;;;2.04;100.00
15670;BME280;18524;45.190;5.732;2023-12-04T05:31:51;99001.63;;;2.11;100.00
15670;BME280;18524;45.190;5.732;2023-12-04T05:36:41;99012.44;;;2.19;100.00
15670;BME280;18524;45.190;5.732;2023-12-04T05:41:31;99028.44;;;2.27;100.00
15670;BME280;18524;45.190;5.732;2023-12-04T05:46:22;99009.25;;;2.31;100.00
15670;BME280;18524;45.190;5.732;2023-12-04T05:51:12;98998.00;;;2.49;100.00
15670;BME280;18524;45.190;5.732;2023-12-04T05:56:04;98990.09;;;2.35;100.00
15670;BME280;18524;45.190;5.732;2023-12-04T06:00:55;99012.75;;;2.47;100.00
15670;BME280;18524;45.190;5.732;2023-12-04T06:05:45;99010.69;;;2.54;100.00
15670;BME280;18524;45.190;5.732;2023-12-04T06:10:36;99003.16;;;2.67;100.00
15670;BME280;18524;45.190;5.732;2023-12-04T06:15:26;99012.69;;;2.66;100.00
15670;BME280;18524;45.190;5.732;2023-12-04T06:20:16;98990.66;;;2.75;100.00
15670;BME280;18524;45.190;5.732;2023-12-04T06:25:07;98973.03;;;2.66;100.00
15670;BME280;18524;45.190;5.732;2023-12-04T06:29:58;98956.25;;;2.56;100.00
15670;BME280;18524;45.190;5.732;2023-12-04T06:34:48;98954.06;;;2.65;100.00
15670;BME280;18524;45.190;5.732;2023-12-04T06:39:40;98940.28;;;2.65;100.00
15670;BME280;18524;45.190;5.732;2023-12-04T06:44:31;98906.22;;;2.72;100.00
15670;BME280;18524;45.190;5.732;2023-12-04T06:49:21;98927.84;;;2.71;100.00
15670;BME280;18524;45.190;5.732;2023-12-04T06:54:12;98932.47;;;2.82;100.00
15670;BME280;18524;45.190;5.732;2023-12-04T06:59:03;98886.53;;;2.86;100.00
15670;BME280;18524;45.190;5.732;2023-12-04T07:03:54;98896.22;;;2.82;100.00
15670;BME280;18524;45.190;5.732;2023-12-04T07:08:44;98905.41;;;2.88;100.00
15670;BME280;18524;45.190;5.732;2023-12-04T07:13:34;98883.59;;;2.92;100.00
15670;BME280;18524;45.190;5.732;2023-12-04T07:18:25;98888.22;;;3.02;100.00
15670;BME280;18524;45.190;5.732;2023-12-04T07:23:15;98934.03;;;3.18;100.00
15670;BME280;18524;45.190;5.732;2023-12-04T07:28:06;98881.19;;;3.20;100.00
15670;BME280;18524;45.190;5.732;2023-12-04T07:32:56;98917.66;;;3.17;100.00
15670;BME280;18524;45.190;5.732;2023-12-04T07:37:46;98901.84;;;3.06;100.00
15670;BME280;18524;45.190;5.732;2023-12-04T07:42:37;98889.53;;;2.94;100.00
15670;BME280;18524;45.190;5.732;2023-12-04T07:47:28;98897.50;;;3.06;100.00
15670;BME280;18524;45.190;5.732;2023-12-04T07:52:19;98899.59;;;3.16;100.00
15670;BME280;18524;45.190;5.732;2023-12-04T07:57:09;98884.81;;;3.18;100.00
15670;BME280;18524;45.190;5.732;2023-12-04T08:01:59;98918.41;;;3.19;100.00
15670;BME280;18524;45.190;5.732;2023-12-04T08:06:50;98896.31;;;3.28;100.00
15670;BME280;18524;45.190;5.732;2023-12-04T08:11:40;98935.28;;;3.42;100.00
15670;BME280;18524;45.190;5.732;2023-12-04T08:16:30;98888.78;;;3.55;100.00
15670;BME280;18524;45.190;5.732;2023-12-04T08:21:21;98901.84;;;3.53;100.00
15670;BME280;18524;45.190;5.732;2023-12-04T08:26:11;98945.81;;;3.55;100.00
15670;BME280;18524;45.190;5.732;2023-12-04T08:31:02;98923.63;;;3.65;100.00
15670;BME280;18524;45.190;5.732;2023-12-04T08:35:52;98922.16;;;3.61;100.00
15670;BME280;18524;45.190;5.732;2023-12-04T08:40:42;98928.91;;;3.63;100.00
15670;BME280;18524;45.190;5.732;2023-12-04T08:45:34;98910.19;;;3.58;100.00
15670;BME280;18524;45.190;5.732;2023-12-04T08:50:24;98941.22;;;3.75;100.00
15670;BME280;18524;45.190;5.732;2023-12-04T08:55:15;98938.84;;;3.71;100.00
15670;BME280;18524;45.190;5.732;2023-12-04T09:00:06;98952.59;;;3.73;100.00
15670;BME280;18524;45.190;5.732;2023-12-04T09:04:58;98938.72;;;3.74;100.00
15670;BME280;18524;45.190;5.732;2023-12-04T09:09:48;98928.72;;;3.82;100.00
15670;BME280;18524;45.190;5.732;2023-12-04T09:14:39;98943.59;;;3.94;100.00
15670;BME280;18524;45.190;5.732;2023-12-04T09:19:29;98933.78;;;3.99;100.00
15670;BME280;18524;45.190;5.732;2023-12-04T09:24:19;98938.94;;;4.15;100.00
15670;BME280;18524;45.190;5.732;2023-12-04T09:29:13;98930.34;;;4.15;99.53
15670;BME280;18524;45.190;5.732;2023-12-04T09:34:03;98914.97;;;4.26;100.00
15670;BME280;18524;45.190;5.732;2023-12-04T09:38:53;98934.88;;;4.55;100.00
15670;BME280;18524;45.190;5.732;2023-12-04T09:43:44;98935.63;;;4.86;100.00
15670;BME280;18524;45.190;5.732;2023-12-04T09:48:35;98926.88;;;5.15;100.00
15670;BME280;18524;45.190;5.732;2023-12-04T09:53:26;98927.25;;;5.23;100.00
15670;BME280;18524;45.190;5.732;2023-12-04T09:58:20;98914.94;;;5.40;100.00
15670;BME280;18524;45.190;5.732;2023-12-04T10:03:11;98912.41;;;5.52;100.00
15670;BME280;18524;45.190;5.732;2023-12-04T10:08:02;98909.69;;;5.81;100.00
15670;BME280;18524;45.190;5.732;2023-12-04T10:12:53;98890.34;;;5.99;100.00
15670;BME280;18524;45.190;5.732;2023-12-04T10:17:44;98895.97;;;6.18;100.00
15670;BME280;18524;45.190;5.732;2023-12-04T10:22:34;98876.94;;;6.43;100.00
15670;BME280;18524;45.190;5.732;2023-12-04T10:27:26;98854.22;;;6.58;100.00
15670;BME280;18524;45.190;5.732;2023-12-04T10:32:20;98846.19;;;6.74;100.00
15670;BME280;18524;45.190;5.732;2023-12-04T10:37:13;98821.88;;;6.86;100.00
15670;BME280;18524;45.190;5.732;2023-12-04T10:42:04;98808.69;;;7.00;100.00
15670;BME280;18524;45.190;5.732;2023-12-04T10:46:56;98813.25;;;7.09;100.00
15670;BME280;18524;45.190;5.732;2023-12-04T10:51:49;98800.06;;;7.24;100.00
15670;BME280;18524;45.190;5.732;2023-12-04T10:56:41;98785.56;;;7.43;100.00
15670;BME280;18524;45.190;5.732;2023-12-04T11:01:34;98777.41;;;7.48;100.00
15670;BME280;18524;45.190;5.732;2023-12-04T11:06:26;98761.97;;;7.45;100.00
15670;BME280;18524;45.190;5.732;2023-12-04T11:11:30;98761.28;;;7.54;100.00
15670;BME280;18524;45.190;5.732;2023-12-04T11:21:19;98747.16;;;7.45;100.00
15670;BME280;18524;45.190;5.732;2023-12-04T11:26:11;98745.56;;;7.43;100.00
15670;BME280;18524;45.190;5.732;2023-12-04T11:31:02;98744.81;;;7.30;100.00
15670;BME280;18524;45.190;5.732;2023-12-04T11:35:52;98739.31;;;7.10;100.00
15670;BME280;18524;45.190;5.732;2023-12-04T11:40:55;98730.91;;;6.70;100.00
15670;BME280;18524;45.190;5.732;2023-12-04T11:45:47;98732.34;;;6.38;100.00
15670;BME280;18524;45.190;5.732;2023-12-04T11:50:38;98735.78;;;6.38;100.00
15670;BME280;18524;45.190;5.732;2023-12-04T11:55:28;98720.28;;;6.24;100.00
15670;BME280;18524;45.190;5.732;2023-12-04T12:00:22;98734.97;;;6.38;100.00
15670;BME280;18524;45.190;5.732;2023-12-04T12:05:12;98721.31;;;6.21;100.00
15670;BME280;18524;45.190;5.732;2023-12-04T12:10:03;98730.38;;;6.28;100.00
15670;BME280;18524;45.190;5.732;2023-12-04T12:14:54;98760.91;;;6.39;100.00
15670;BME280;18524;45.190;5.732;2023-12-04T12:19:45;98751.94;;;6.43;100.00
15670;BME280;18524;45.190;5.732;2023-12-04T12:24:35;98730.94;;;6.08;100.00
15670;BME280;18524;45.190;5.732;2023-12-04T12:29:27;98755.00;;;5.99;100.00
15670;BME280;18524;45.190;5.732;2023-12-04T12:34:18;98757.03;;;5.81;100.00
15670;BME280;18524;45.190;5.732;2023-12-04T12:39:09;98729.97;;;5.71;100.00
15670;BME280;18524;45.190;5.732;2023-12-04T12:44:00;98742.44;;;5.66;100.00
15670;BME280;18524;45.190;5.732;2023-12-04T12:48:51;98732.56;;;5.71;100.00
15670;BME280;18524;45.190;5.732;2023-12-04T12:53:43;98739.53;;;5.83;100.00
15670;BME280;18524;45.190;5.732;2023-12-04T12:58:34;98720.16;;;5.87;100.00
15670;BME280;18524;45.190;5.732;2023-12-04T13:03:24;98732.06;;;5.91;100.00
15670;BME280;18524;45.190;5.732;2023-12-04T13:08:15;98716.22;;;5.82;100.00
15670;BME280;18524;45.190;5.732;2023-12-04T13:13:10;98714.78;;;5.78;100.00
15670;BME280;18524;45.190;5.732;2023-12-04T13:18:00;98721.22;;;5.85;100.00
15670;BME280;18524;45.190;5.732;2023-12-04T13:22:50;98712.78;;;5.81;100.00
15670;BME280;18524;45.190;5.732;2023-12-04T13:27:41;98701.56;;;5.81;100.00
15670;BME280;18524;45.190;5.732;2023-12-04T13:32:31;98717.47;;;5.76;100.00
15670;BME280;18524;45.190;5.732;2023-12-04T13:37:23;98711.44;;;5.76;100.00
15670;BME280;18524;45.190;5.732;2023-12-04T13:42:15;98727.78;;;5.78;100.00
15670;BME280;18524;45.190;5.732;2023-12-04T13:47:42;98719.25;;;5.76;100.00
15670;BME280;18524;45.190;5.732;2023-12-04T13:52:33;98712.06;;;5.79;100.00
15670;BME280;18524;45.190;5.732;2023-12-04T13:57:24;98722.69;;;5.63;100.00
15670;BME280;18524;45.190;5.732;2023-12-04T14:02:33;98713.41;;;5.72;100.00
15670;BME280;18524;45.190;5.732;2023-12-04T14:07:27;98715.19;;;5.84;100.00
15670;BME280;18524;45.190;5.732;2023-12-04T14:12:17;98704.47;;;5.76;100.00
15670;BME280;18524;45.190;5.732;2023-12-04T14:17:07;98708.84;;;5.63;100.00
15670;BME280;18524;45.190;5.732;2023-12-04T14:21:59;98702.28;;;5.70;100.00
15670;BME280;18524;45.190;5.732;2023-12-04T14:26:51;98687.91;;;5.77;100.00
15670;BME280;18524;45.190;5.732;2023-12-04T14:31:43;98703.84;;;5.73;100.00
15670;BME280;18524;45.190;5.732;2023-12-04T14:36:33;98680.03;;;5.91;100.00
15670;BME280;18524;45.190;5.732;2023-12-04T14:41:24;98700.72;;;5.93;100.00
15670;BME280;18524;45.190;5.732;2023-12-04T14:46:15;98668.69;;;5.92;100.00
15670;BME280;18524;45.190;5.732;2023-12-04T14:51:07;98664.13;;;5.96;100.00
15670;BME280;18524;45.190;5.732;2023-12-04T14:55:59;98661.50;;;5.96;100.00
15670;BME280;18524;45.190;5.732;2023-12-04T15:01:02;98647.84;;;6.05;100.00
15670;BME280;18524;45.190;5.732;2023-12-04T15:06:11;98653.59;;;5.98;100.00
15670;BME280;18524;45.190;5.732;2023-12-04T15:11:01;98644.84;;;5.99;100.00
15670;BME280;18524;45.190;5.732;2023-12-04T15:16:11;98633.06;;;6.06;100.00
15670;BME280;18524;45.190;5.732;2023-12-04T15:21:06;98630.69;;;6.03;100.00
15670;BME280;18524;45.190;5.732;2023-12-04T15:25:56;98618.69;;;6.13;100.00
15670;BME280;18524;45.190;5.732;2023-12-04T15:30:47;98600.84;;;6.19;100.00
15670;BME280;18524;45.190;5.732;2023-12-04T15:35:38;98596.53;;;6.31;100.00
15670;BME280;18524;45.190;5.732;2023-12-04T15:40:28;98588.34;;;6.48;100.00
15670;BME280;18524;45.190;5.732;2023-12-04T15:45:20;98603.03;;;7.08;100.00
15670;BME280;18524;45.190;5.732;2023-12-04T15:50:10;98611.81;;;7.30;100.00
15670;BME280;18524;45.190;5.732;2023-12-04T15:55:01;98597.84;;;7.42;100.00
15670;BME280;18524;45.190;5.732;2023-12-04T15:59:52;98614.22;;;7.44;100.00
15670;BME280;18524;45.190;5.732;2023-12-04T16:04:42;98611.56;;;7.21;100.00
15670;BME280;18524;45.190;5.732;2023-12-04T16:09:33;98590.81;;;7.20;100.00
15670;BME280;18524;45.190;5.732;2023-12-04T16:14:23;98591.78;;;7.19;100.00
15670;BME280;18524;45.190;5.732;2023-12-04T16:19:14;98616.56;;;7.25;100.00
15670;BME280;18524;45.190;5.732;2023-12-04T16:24:05;98603.03;;;7.08;100.00
15670;BME280;18524;45.190;5.732;2023-12-04T16:28:56;98605.50;;;6.75;100.00
15670;BME280;18524;45.190;5.732;2023-12-04T16:33:46;98598.25;;;6.43;100.00
15670;BME280;18524;45.190;5.732;2023-12-04T16:38:37;98611.41;;;6.29;100.00
15670;BME280;18524;45.190;5.732;2023-12-04T16:43:28;98615.53;;;6.20;100.00
15670;BME280;18524;45.190;5.732;2023-12-04T16:48:19;98609.94;;;6.14;100.00
15670;BME280;18524;45.190;5.732;2023-12-04T16:53:09;98610.69;;;6.03;100.00
15670;BME280;18524;45.190;5.732;2023-12-04T16:58:01;98606.03;;;5.95;100.00
15670;BME280;18524;45.190;5.732;2023-12-04T17:02:54;98609.94;;;5.88;100.00
15670;BME280;18524;45.190;5.732;2023-12-04T17:07:44;98608.81;;;5.80;100.00
15670;BME280;18524;45.190;5.732;2023-12-04T17:12:36;98594.16;;;5.91;100.00
15670;BME280;18524;45.190;5.732;2023-12-04T17:17:27;98585.22;;;5.95;100.00
15670;BME280;18524;45.190;5.732;2023-12-04T17:22:17;98564.72;;;6.15;100.00
15670;BME280;18524;45.190;5.732;2023-12-04T17:27:08;98549.16;;;6.26;100.00
15670;BME280;18524;45.190;5.732;2023-12-04T17:31:58;98564.63;;;6.40;100.00
15670;BME280;18524;45.190;5.732;2023-12-04T17:36:51;98581.69;;;6.44;100.00
15670;BME280;18524;45.190;5.732;2023-12-04T17:41:41;98566.03;;;6.33;100.00
15670;BME280;18524;45.190;5.732;2023-12-04T17:46:31;98566.28;;;6.41;100.00
15670;BME280;18524;45.190;5.732;2023-12-04T17:51:22;98554.03;;;6.54;100.00
15670;BME280;18524;45.190;5.732;2023-12-04T17:56:13;98559.38;;;6.64;100.00
15670;BME280;18524;45.190;5.732;2023-12-04T18:01:03;98572.41;;;6.64;100.00
15670;BME280;18524;45.190;5.732;2023-12-04T18:05:54;98568.25;;;6.62;100.00
15670;BME280;18524;45.190;5.732;2023-12-04T18:10:44;98577.97;;;6.59;100.00
15670;BME280;18524;45.190;5.732;2023-12-04T18:15:34;98579.44;;;6.40;100.00
15670;BME280;18524;45.190;5.732;2023-12-04T18:20:25;98594.44;;;6.36;100.00
15670;BME280;18524;45.190;5.732;2023-12-04T18:25:15;98592.25;;;6.30;100.00
15670;BME280;18524;45.190;5.732;2023-12-04T18:30:06;98604.09;;;6.10;100.00
15670;BME280;18524;45.190;5.732;2023-12-04T18:34:58;98592.59;;;6.02;100.00
15670;BME280;18524;45.190;5.732;2023-12-04T18:39:50;98622.66;;;6.06;100.00
15670;BME280;18524;45.190;5.732;2023-12-04T18:44:40;98612.84;;;6.09;100.00
15670;BME280;18524;45.190;5.732;2023-12-04T18:49:37;98598.69;;;6.13;100.00
15670;BME280;18524;45.190;5.732;2023-12-04T18:54:30;98594.09;;;6.17;100.00
15670;BME280;18524;45.190;5.732;2023-12-04T18:59:21;98594.09;;;6.17;100.00
15670;BME280;18524;45.190;5.732;2023-12-04T19:04:11;98596.81;;;6.15;100.00
15670;BME280;18524;45.190;5.732;2023-12-04T19:09:03;98591.91;;;6.11;100.00
15670;BME280;18524;45.190;5.732;2023-12-04T19:13:54;98595.47;;;6.10;100.00
15670;BME280;18524;45.190;5.732;2023-12-04T19:18:44;98597.41;;;5.95;100.00
15670;BME280;18524;45.190;5.732;2023-12-04T19:23:35;98599.22;;;6.06;100.00
15670;BME280;18524;45.190;5.732;2023-12-04T19:28:25;98579.41;;;6.16;100.00
15670;BME280;18524;45.190;5.732;2023-12-04T19:33:19;98586.56;;;6.25;100.00
15670;BME280;18524;45.190;5.732;2023-12-04T19:38:11;98586.28;;;6.17;100.00
15670;BME280;18524;45.190;5.732;2023-12-04T19:43:02;98586.72;;;6.11;100.00
15670;BME280;18524;45.190;5.732;2023-12-04T19:47:52;98600.22;;;6.16;100.00
15670;BME280;18524;45.190;5.732;2023-12-04T19:52:42;98594.44;;;6.36;100.00
15670;BME280;18524;45.190;5.732;2023-12-04T19:57:33;98597.78;;;6.38;100.00
15670;BME280;18524;45.190;5.732;2023-12-04T20:02:23;98600.16;;;6.41;100.00
15670;BME280;18524;45.190;5.732;2023-12-04T20:07:14;98596.25;;;6.47;100.00
15670;BME280;18524;45.190;5.732;2023-12-04T20:12:04;98605.34;;;6.41;100.00
15670;BME280;18524;45.190;5.732;2023-12-04T20:16:55;98601.97;;;6.52;100.00
15670;BME280;18524;45.190;5.732;2023-12-04T20:21:45;98602.47;;;6.57;100.00
15670;BME280;18524;45.190;5.732;2023-12-04T20:26:36;98601.84;;;6.53;100.00
15670;BME280;18524;45.190;5.732;2023-12-04T20:31:26;98596.97;;;6.49;100.00
15670;BME280;18524;45.190;5.732;2023-12-04T20:36:17;98616.72;;;6.40;100.00
15670;BME280;18524;45.190;5.732;2023-12-04T20:41:08;98614.84;;;6.42;100.00
15670;BME280;18524;45.190;5.732;2023-12-04T20:45:59;98629.50;;;6.43;100.00
15670;BME280;18524;45.190;5.732;2023-12-04T20:50:49;98626.47;;;6.49;100.00
15670;BME280;18524;45.190;5.732;2023-12-04T20:55:40;98614.59;;;6.45;100.00
15670;BME280;18524;45.190;5.732;2023-12-04T21:00:30;98607.03;;;6.42;100.00
15670;BME280;18524;45.190;5.732;2023-12-04T21:05:23;98617.50;;;6.53;100.00
15670;BME280;18524;45.190;5.732;2023-12-04T21:10:14;98628.97;;;6.51;100.00
15670;BME280;18524;45.190;5.732;2023-12-04T21:15:04;98639.00;;;6.44;100.00
15670;BME280;18524;45.190;5.732;2023-12-04T21:19:55;98627.19;;;6.51;100.00
15670;BME280;18524;45.190;5.732;2023-12-04T21:24:46;98645.53;;;6.50;100.00
15670;BME280;18524;45.190;5.732;2023-12-04T21:29:37;98648.13;;;6.50;100.00
15670;BME280;18524;45.190;5.732;2023-12-04T21:34:27;98644.88;;;6.35;100.00
15670;BME280;18524;45.190;5.732;2023-12-04T21:39:17;98649.75;;;6.27;100.00
15670;BME280;18524;45.190;5.732;2023-12-04T21:44:08;98644.03;;;6.35;100.00
15670;BME280;18524;45.190;5.732;2023-12-04T21:48:58;98647.78;;;6.31;100.00
15670;BME280;18524;45.190;5.732;2023-12-04T21:53:48;98652.22;;;6.41;100.00
15670;BME280;18524;45.190;5.732;2023-12-04T21:58:39;98646.31;;;6.26;100.00
15670;BME280;18524;45.190;5.732;2023-12-04T22:03:29;98652.25;;;6.28;100.00
15670;BME280;18524;45.190;5.732;2023-12-04T22:08:20;98661.22;;;6.24;100.00
15670;BME280;18524;45.190;5.732;2023-12-04T22:13:10;98652.59;;;6.24;100.00
15670;BME280;18524;45.190;5.732;2023-12-04T22:18:00;98656.97;;;6.23;100.00
15670;BME280;18524;45.190;5.732;2023-12-04T22:22:51;98653.81;;;6.31;100.00
15670;BME280;18524;45.190;5.732;2023-12-04T22:27:41;98658.19;;;6.31;100.00
15670;BME280;18524;45.190;5.732;2023-12-04T22:32:32;98657.72;;;6.49;100.00
15670;BME280;18524;45.190;5.732;2023-12-04T22:37:23;98660.81;;;6.54;100.00
15670;BME280;18524;45.190;5.732;2023-12-04T22:42:13;98651.84;;;6.35;100.00
15670;BME280;18524;45.190;5.732;2023-12-04T22:47:03;98654.03;;;6.28;100.00
15670;BME280;18524;45.190;5.732;2023-12-04T22:51:54;98643.59;;;6.28;100.00
15670;BME280;18524;45.190;5.732;2023-12-04T22:56:44;98648.53;;;6.33;100.00
15670;BME280;18524;45.190;5.732;2023-12-04T23:01:34;98647.16;;;6.27;100.00
15670;BME280;18524;45.190;5.732;2023-12-04T23:06:25;98643.50;;;6.30;100.00
15670;BME280;18524;45.190;5.732;2023-12-04T23:11:15;98648.59;;;6.31;100.00
15670;BME280;18524;45.190;5.732;2023-12-04T23:16:06;98631.84;;;6.35;100.00
15670;BME280;18524;45.190;5.732;2023-12-04T23:20:57;98628.31;;;6.36;100.00
15670;BME280;18524;45.190;5.732;2023-12-04T23:25:47;98640.28;;;6.39;100.00
15670;BME280;18524;45.190;5.732;2023-12-04T23:30:38;98630.28;;;6.33;100.00
15670;BME280;18524;45.190;5.732;2023-12-04T23:35:32;98640.19;;;6.27;100.00
15670;BME280;18524;45.190;5.732;2023-12-04T23:40:22;98630.94;;;6.23;100.00
15670;BME280;18524;45.190;5.732;2023-12-04T23:45:13;98639.25;;;6.28;100.00
15670;BME280;18524;45.190;5.732;2023-12-04T23:50:03;98639.66;;;5.99;100.00
15670;BME280;18524;45.190;5.732;2023-12-04T23:54:54;98655.34;;;6.10;100.00
15670;BME280;18524;45.190;5.732;2023-12-04T23:59:44;98654.63;;;6.08;100.00
